sensor_id;sensor_type;location;lat;lon;timestamp;pressure;altitude;pressure_sealevel;temperature;humidity
62632;BME280;48703;51.248;-0.546;2023-03-23T00:00:42;99098;;;10.48;83.16
62632;BME280;48703;51.248;-0.546;2023-03-23T00:03:44;99098;;;10.46;82.81
62632;BME280;48703;51.248;-0.546;2023-03-23T00:06:46;99097;;;10.45;82.67
62632;BME280;48703;51.248;-0.546;2023-03-23T00:09:48;99096;;;10.44;82.83
62632;BME280;48703;51.248;-0.546;2023-03-23T00:12:50;99102;;;10.42;82.84
62632;BME280;48703;51.248;-0.546;2023-03-23T00:15:52;99100;;;10.41;83.13
62632;BME280;48703;51.248;-0.546;2023-03-23T00:18:54;99104;;;10.40;83.05
62632;BME280;48703;51.248;-0.546;2023-03-23T00:21:56;99109;;;10.39;82.83
62632;BME280;48703;51.248;-0.546;2023-03-23T00:24:58;99113;;;10.39;83.17
62632;BME280;48703;51.248;-0.546;2023-03-23T00:28:00;99120;;;10.38;83.43
62632;BME280;48703;51.248;-0.546;2023-03-23T00:31:03;99133;;;10.38;83.43
62632;BME280;48703;51.248;-0.546;2023-03-23T00:34:04;99129;;;10.37;83.83
62632;BME280;48703;51.248;-0.546;2023-03-23T00:37:06;99123;;;10.35;83.28
62632;BME280;48703;51.248;-0.546;2023-03-23T00:40:08;99123;;;10.32;83.44
62632;BME280;48703;51.248;-0.546;2023-03-23T00:43:10;99128;;;10.28;82.21
62632;BME280;48703;51.248;-0.546;2023-03-23T00:46:12;99129;;;10.26;80.93
62632;BME280;48703;51.248;-0.546;2023-03-23T00:49:15;99136;;;10.24;81.47
62632;BME280;48703;51.248;-0.546;2023-03-23T00:52:16;99145;;;10.23;81.61
62632;BME280;48703;51.248;-0.546;2023-03-23T00:55:18;99147;;;10.20;81.53
62632;BME280;48703;51.248;-0.546;2023-03-23T00:58:20;99146;;;10.18;81.55
62632;BME280;48703;51.248;-0.546;2023-03-23T01:01:22;99150;;;10.15;81.71
62632;BME280;48703;51.248;-0.546;2023-03-23T01:04:24;99156;;;10.13;81.49
62632;BME280;48703;51.248;-0.546;2023-03-23T01:07:26;99158;;;10.11;81.47
62632;BME280;48703;51.248;-0.546;2023-03-23T01:10:28;99161;;;10.08;81.16
62632;BME280;48703;51.248;-0.546;2023-03-23T01:13:30;99167;;;10.05;80.91
62632;BME280;48703;51.248;-0.546;2023-03-23T01:16:32;99169;;;10.02;81.05
62632;BME280;48703;51.248;-0.546;2023-03-23T01:19:34;99178;;;9.99;81.19
62632;BME280;48703;51.248;-0.546;2023-03-23T01:22:37;99179;;;9.96;81.34
62632;BME280;48703;51.248;-0.546;2023-03-23T01:25:38;99180;;;9.93;81.04
62632;BME280;48703;51.248;-0.546;2023-03-23T01:28:40;99180;;;9.90;80.93
62632;BME280;48703;51.248;-0.546;2023-03-23T01:31:42;99180;;;9.87;81.31
62632;BME280;48703;51.248;-0.546;2023-03-23T01:34:44;99179;;;9.84;81.64
62632;BME280;48703;51.248;-0.546;2023-03-23T01:37:46;99176;;;9.80;81.78
62632;BME280;48703;51.248;-0.546;2023-03-23T01:40:48;99172;;;9.76;81.79
62632;BME280;48703;51.248;-0.546;2023-03-23T01:43:54;99172;;;9.73;81.77
62632;BME280;48703;51.248;-0.546;2023-03-23T01:46:52;99174;;;9.69;82.06
62632;BME280;48703;51.248;-0.546;2023-03-23T01:49:54;99179;;;9.65;81.99
62632;BME280;48703;51.248;-0.546;2023-03-23T01:52:56;99176;;;9.63;81.90
62632;BME280;48703;51.248;-0.546;2023-03-23T01:55:58;99179;;;9.59;81.91
62632;BME280;48703;51.248;-0.546;2023-03-23T01:59:01;99179;;;9.56;82.04
62632;BME280;48703;51.248;-0.546;2023-03-23T02:02:02;99183;;;9.52;82.30
62632;BME280;48703;51.248;-0.546;2023-03-23T02:05:07;99176;;;9.49;82.16
62632;BME280;48703;51.248;-0.546;2023-03-23T02:08:07;99183;;;9.46;82.37
62632;BME280;48703;51.248;-0.546;2023-03-23T02:11:12;99180;;;9.44;82.34
62632;BME280;48703;51.248;-0.546;2023-03-23T02:14:10;99180;;;9.42;82.43
62632;BME280;48703;51.248;-0.546;2023-03-23T02:17:14;99180;;;9.39;82.41
62632;BME280;48703;51.248;-0.546;2023-03-23T02:20:20;99182;;;9.37;82.71
62632;BME280;48703;51.248;-0.546;2023-03-23T02:23:20;99185;;;9.34;83.00
62632;BME280;48703;51.248;-0.546;2023-03-23T02:26:24;99190;;;9.33;83.31
62632;BME280;48703;51.248;-0.546;2023-03-23T02:29:27;99191;;;9.32;83.55
62632;BME280;48703;51.248;-0.546;2023-03-23T02:32:27;99190;;;9.32;83.59
62632;BME280;48703;51.248;-0.546;2023-03-23T02:35:26;99189;;;9.31;83.52
62632;BME280;48703;51.248;-0.546;2023-03-23T02:38:28;99186;;;9.30;83.77
62632;BME280;48703;51.248;-0.546;2023-03-23T02:41:30;99187;;;9.29;83.95
62632;BME280;48703;51.248;-0.546;2023-03-23T02:44:30;99189;;;9.28;84.04
62632;BME280;48703;51.248;-0.546;2023-03-23T02:47:32;99187;;;9.27;84.13
62632;BME280;48703;51.248;-0.546;2023-03-23T02:50:34;99184;;;9.25;84.15
62632;BME280;48703;51.248;-0.546;2023-03-23T02:53:37;99178;;;9.24;84.29
62632;BME280;48703;51.248;-0.546;2023-03-23T02:56:38;99178;;;9.23;84.12
62632;BME280;48703;51.248;-0.546;2023-03-23T02:59:40;99179;;;9.23;84.27
62632;BME280;48703;51.248;-0.546;2023-03-23T03:02:43;99180;;;9.21;84.19
62632;BME280;48703;51.248;-0.546;2023-03-23T03:05:47;99177;;;9.19;84.10
62632;BME280;48703;51.248;-0.546;2023-03-23T03:08:48;99184;;;9.19;84.41
62632;BME280;48703;51.248;-0.546;2023-03-23T03:11:50;99190;;;9.18;84.28
62632;BME280;48703;51.248;-0.546;2023-03-23T03:14:52;99192;;;9.18;84.42
62632;BME280;48703;51.248;-0.546;2023-03-23T03:17:54;99193;;;9.17;84.52
62632;BME280;48703;51.248;-0.546;2023-03-23T03:20:55;99185;;;9.15;84.22
62632;BME280;48703;51.248;-0.546;2023-03-23T03:23:57;99186;;;9.13;84.34
62632;BME280;48703;51.248;-0.546;2023-03-23T03:26:59;99192;;;9.11;84.24
62632;BME280;48703;51.248;-0.546;2023-03-23T03:30:01;99194;;;9.10;84.23
62632;BME280;48703;51.248;-0.546;2023-03-23T03:33:03;99199;;;9.08;84.22
62632;BME280;48703;51.248;-0.546;2023-03-23T03:36:05;99198;;;9.07;84.38
62632;BME280;48703;51.248;-0.546;2023-03-23T03:39:07;99205;;;9.05;84.25
62632;BME280;48703;51.248;-0.546;2023-03-23T03:42:08;99209;;;9.04;84.51
62632;BME280;48703;51.248;-0.546;2023-03-23T03:45:12;99210;;;9.03;84.50
62632;BME280;48703;51.248;-0.546;2023-03-23T03:48:12;99213;;;9.01;84.49
62632;BME280;48703;51.248;-0.546;2023-03-23T03:51:15;99214;;;9.01;84.73
62632;BME280;48703;51.248;-0.546;2023-03-23T03:54:17;99213;;;8.99;84.74
62632;BME280;48703;51.248;-0.546;2023-03-23T03:57:19;99221;;;8.97;85.00
62632;BME280;48703;51.248;-0.546;2023-03-23T04:00:21;99222;;;8.95;85.20
62632;BME280;48703;51.248;-0.546;2023-03-23T04:03:23;99226;;;8.95;85.38
62632;BME280;48703;51.248;-0.546;2023-03-23T04:06:25;99232;;;8.94;85.49
62632;BME280;48703;51.248;-0.546;2023-03-23T04:09:27;99234;;;8.94;85.57
62632;BME280;48703;51.248;-0.546;2023-03-23T04:12:29;99235;;;8.93;85.65
62632;BME280;48703;51.248;-0.546;2023-03-23T04:15:31;99240;;;8.91;85.86
62632;BME280;48703;51.248;-0.546;2023-03-23T04:18:33;99244;;;8.89;85.94
62632;BME280;48703;51.248;-0.546;2023-03-23T04:21:35;99242;;;8.88;86.14
62632;BME280;48703;51.248;-0.546;2023-03-23T04:24:37;99246;;;8.87;86.17
62632;BME280;48703;51.248;-0.546;2023-03-23T04:27:39;99250;;;8.86;86.29
62632;BME280;48703;51.248;-0.546;2023-03-23T04:30:41;99250;;;8.84;86.38
62632;BME280;48703;51.248;-0.546;2023-03-23T04:33:43;99253;;;8.83;86.57
62632;BME280;48703;51.248;-0.546;2023-03-23T04:36:45;99257;;;8.81;86.47
62632;BME280;48703;51.248;-0.546;2023-03-23T04:39:47;99259;;;8.79;86.65
62632;BME280;48703;51.248;-0.546;2023-03-23T04:42:49;99255;;;8.78;86.57
62632;BME280;48703;51.248;-0.546;2023-03-23T04:45:52;99258;;;8.76;86.69
62632;BME280;48703;51.248;-0.546;2023-03-23T04:48:53;99262;;;8.75;86.72
62632;BME280;48703;51.248;-0.546;2023-03-23T04:51:55;99264;;;8.74;86.87
62632;BME280;48703;51.248;-0.546;2023-03-23T04:54:57;99265;;;8.75;86.99
62632;BME280;48703;51.248;-0.546;2023-03-23T04:57:59;99268;;;8.76;87.11
62632;BME280;48703;51.248;-0.546;2023-03-23T05:01:01;99272;;;8.77;87.13
62632;BME280;48703;51.248;-0.546;2023-03-23T05:04:03;99279;;;8.80;87.21
62632;BME280;48703;51.248;-0.546;2023-03-23T05:07:05;99281;;;8.82;87.23
62632;BME280;48703;51.248;-0.546;2023-03-23T05:10:08;99275;;;8.84;87.19
62632;BME280;48703;51.248;-0.546;2023-03-23T05:13:09;99277;;;8.84;87.12
62632;BME280;48703;51.248;-0.546;2023-03-23T05:16:11;99281;;;8.83;87.05
62632;BME280;48703;51.248;-0.546;2023-03-23T05:19:13;99291;;;8.82;86.97
62632;BME280;48703;51.248;-0.546;2023-03-23T05:22:15;99293;;;8.82;86.89
62632;BME280;48703;51.248;-0.546;2023-03-23T05:25:17;99297;;;8.82;86.96
62632;BME280;48703;51.248;-0.546;2023-03-23T05:28:19;99290;;;8.83;86.89
62632;BME280;48703;51.248;-0.546;2023-03-23T05:31:21;99290;;;8.84;86.89
62632;BME280;48703;51.248;-0.546;2023-03-23T05:34:23;99288;;;8.85;86.94
62632;BME280;48703;51.248;-0.546;2023-03-23T05:37:25;99285;;;8.86;86.88
62632;BME280;48703;51.248;-0.546;2023-03-23T05:40:27;99278;;;8.87;86.82
62632;BME280;48703;51.248;-0.546;2023-03-23T05:43:29;99270;;;8.87;86.75
62632;BME280;48703;51.248;-0.546;2023-03-23T05:46:31;99272;;;8.85;86.82
62632;BME280;48703;51.248;-0.546;2023-03-23T05:49:33;99271;;;8.84;86.88
62632;BME280;48703;51.248;-0.546;2023-03-23T05:52:35;99263;;;8.84;87.13
62632;BME280;48703;51.248;-0.546;2023-03-23T05:55:37;99264;;;8.85;87.18
62632;BME280;48703;51.248;-0.546;2023-03-23T05:58:39;99264;;;8.87;87.24
62632;BME280;48703;51.248;-0.546;2023-03-23T06:01:41;99260;;;8.88;87.36
62632;BME280;48703;51.248;-0.546;2023-03-23T06:04:43;99260;;;8.89;87.45
62632;BME280;48703;51.248;-0.546;2023-03-23T06:07:45;99261;;;8.92;87.38
62632;BME280;48703;51.248;-0.546;2023-03-23T06:10:47;99258;;;8.92;87.40
62632;BME280;48703;51.248;-0.546;2023-03-23T06:13:49;99256;;;8.94;87.56
62632;BME280;48703;51.248;-0.546;2023-03-23T06:16:51;99257;;;8.96;87.74
62632;BME280;48703;51.248;-0.546;2023-03-23T06:19:53;99261;;;8.98;88.10
62632;BME280;48703;51.248;-0.546;2023-03-23T06:22:55;99256;;;8.99;88.16
62632;BME280;48703;51.248;-0.546;2023-03-23T06:25:58;99258;;;8.99;88.41
62632;BME280;48703;51.248;-0.546;2023-03-23T06:28:59;99252;;;9.02;88.44
62632;BME280;48703;51.248;-0.546;2023-03-23T06:32:02;99252;;;9.04;88.57
62632;BME280;48703;51.248;-0.546;2023-03-23T06:35:03;99251;;;9.06;88.52
62632;BME280;48703;51.248;-0.546;2023-03-23T06:38:05;99251;;;9.08;88.50
62632;BME280;48703;51.248;-0.546;2023-03-23T06:41:07;99250;;;9.10;88.50
62632;BME280;48703;51.248;-0.546;2023-03-23T06:44:09;99255;;;9.13;88.78
62632;BME280;48703;51.248;-0.546;2023-03-23T06:47:11;99257;;;9.16;88.61
62632;BME280;48703;51.248;-0.546;2023-03-23T06:50:13;99255;;;9.19;88.77
62632;BME280;48703;51.248;-0.546;2023-03-23T06:53:15;99259;;;9.21;88.67
62632;BME280;48703;51.248;-0.546;2023-03-23T06:56:17;99256;;;9.25;88.72
62632;BME280;48703;51.248;-0.546;2023-03-23T06:59:19;99252;;;9.29;88.74
62632;BME280;48703;51.248;-0.546;2023-03-23T07:02:21;99251;;;9.32;88.72
62632;BME280;48703;51.248;-0.546;2023-03-23T07:05:23;99254;;;9.34;88.64
62632;BME280;48703;51.248;-0.546;2023-03-23T07:08:25;99255;;;9.38;88.43
62632;BME280;48703;51.248;-0.546;2023-03-23T07:11:27;99258;;;9.40;88.33
62632;BME280;48703;51.248;-0.546;2023-03-23T07:14:29;99255;;;9.41;88.08
62632;BME280;48703;51.248;-0.546;2023-03-23T07:17:31;99254;;;9.43;87.86
62632;BME280;48703;51.248;-0.546;2023-03-23T07:20:33;99256;;;9.44;87.56
62632;BME280;48703;51.248;-0.546;2023-03-23T07:23:35;99253;;;9.46;87.34
62632;BME280;48703;51.248;-0.546;2023-03-23T07:26:37;99259;;;9.48;87.37
62632;BME280;48703;51.248;-0.546;2023-03-23T07:29:39;99264;;;9.50;87.21
62632;BME280;48703;51.248;-0.546;2023-03-23T07:32:41;99264;;;9.52;87.05
62632;BME280;48703;51.248;-0.546;2023-03-23T07:35:43;99266;;;9.55;86.95
62632;BME280;48703;51.248;-0.546;2023-03-23T07:38:45;99271;;;9.58;86.48
62632;BME280;48703;51.248;-0.546;2023-03-23T07:41:47;99271;;;9.59;86.07
62632;BME280;48703;51.248;-0.546;2023-03-23T07:44:49;99268;;;9.60;85.77
62632;BME280;48703;51.248;-0.546;2023-03-23T07:47:51;99278;;;9.62;85.79
62632;BME280;48703;51.248;-0.546;2023-03-23T07:50:53;99278;;;9.64;85.84
62632;BME280;48703;51.248;-0.546;2023-03-23T07:53:55;99279;;;9.66;86.04
62632;BME280;48703;51.248;-0.546;2023-03-23T07:56:57;99287;;;9.69;85.63
62632;BME280;48703;51.248;-0.546;2023-03-23T07:59:59;99291;;;9.72;85.52
62632;BME280;48703;51.248;-0.546;2023-03-23T08:03:04;99288;;;9.77;85.37
62632;BME280;48703;51.248;-0.546;2023-03-23T08:06:04;99288;;;9.82;84.73
62632;BME280;48703;51.248;-0.546;2023-03-23T08:09:05;99291;;;9.86;84.36
62632;BME280;48703;51.248;-0.546;2023-03-23T08:12:07;99291;;;9.88;84.11
62632;BME280;48703;51.248;-0.546;2023-03-23T08:15:10;99286;;;9.93;83.77
62632;BME280;48703;51.248;-0.546;2023-03-23T08:18:11;99293;;;9.97;83.98
62632;BME280;48703;51.248;-0.546;2023-03-23T08:21:13;99287;;;10.01;83.82
62632;BME280;48703;51.248;-0.546;2023-03-23T08:24:15;99290;;;10.04;83.46
62632;BME280;48703;51.248;-0.546;2023-03-23T08:27:17;99294;;;10.07;83.48
62632;BME280;48703;51.248;-0.546;2023-03-23T08:30:20;99292;;;10.09;83.55
62632;BME280;48703;51.248;-0.546;2023-03-23T08:33:21;99293;;;10.11;83.88
62632;BME280;48703;51.248;-0.546;2023-03-23T08:36:23;99290;;;10.17;84.13
62632;BME280;48703;51.248;-0.546;2023-03-23T08:39:25;99289;;;10.21;84.28
62632;BME280;48703;51.248;-0.546;2023-03-23T08:42:27;99289;;;10.28;84.37
62632;BME280;48703;51.248;-0.546;2023-03-23T08:45:29;99293;;;10.33;84.31
62632;BME280;48703;51.248;-0.546;2023-03-23T08:48:32;99292;;;10.38;84.31
62632;BME280;48703;51.248;-0.546;2023-03-23T08:51:33;99292;;;10.41;84.12
62632;BME280;48703;51.248;-0.546;2023-03-23T08:54:35;99295;;;10.48;83.91
62632;BME280;48703;51.248;-0.546;2023-03-23T08:57:38;99296;;;10.53;83.96
62632;BME280;48703;51.248;-0.546;2023-03-23T09:00:39;99299;;;10.63;83.69
62632;BME280;48703;51.248;-0.546;2023-03-23T09:03:41;99302;;;10.75;83.45
62632;BME280;48703;51.248;-0.546;2023-03-23T09:06:43;99306;;;10.83;82.61
62632;BME280;48703;51.248;-0.546;2023-03-23T09:09:45;99307;;;10.85;82.42
62632;BME280;48703;51.248;-0.546;2023-03-23T09:12:48;99301;;;10.87;81.45
62632;BME280;48703;51.248;-0.546;2023-03-23T09:15:50;99301;;;10.92;81.32
62632;BME280;48703;51.248;-0.546;2023-03-23T09:18:52;99307;;;10.93;81.22
62632;BME280;48703;51.248;-0.546;2023-03-23T09:21:54;99306;;;10.97;81.15
62632;BME280;48703;51.248;-0.546;2023-03-23T09:24:56;99306;;;11.04;81.04
62632;BME280;48703;51.248;-0.546;2023-03-23T09:27:58;99304;;;11.05;80.30
62632;BME280;48703;51.248;-0.546;2023-03-23T09:31:00;99303;;;11.04;80.39
62632;BME280;48703;51.248;-0.546;2023-03-23T09:34:02;99307;;;11.02;80.69
62632;BME280;48703;51.248;-0.546;2023-03-23T09:37:04;99303;;;11.01;80.54
62632;BME280;48703;51.248;-0.546;2023-03-23T09:40:07;99298;;;11.00;80.29
62632;BME280;48703;51.248;-0.546;2023-03-23T09:43:43;99292;;;11.04;80.47
62632;BME280;48703;51.248;-0.546;2023-03-23T09:46:14;99287;;;11.14;79.51
62632;BME280;48703;51.248;-0.546;2023-03-23T09:49:13;99285;;;11.21;78.84
62632;BME280;48703;51.248;-0.546;2023-03-23T09:52:14;99287;;;11.30;79.51
62632;BME280;48703;51.248;-0.546;2023-03-23T09:55:16;99283;;;11.42;79.80
62632;BME280;48703;51.248;-0.546;2023-03-23T09:58:18;99283;;;11.51;79.59
62632;BME280;48703;51.248;-0.546;2023-03-23T10:01:22;99280;;;11.60;77.20
62632;BME280;48703;51.248;-0.546;2023-03-23T10:04:25;99290;;;11.68;76.90
62632;BME280;48703;51.248;-0.546;2023-03-23T10:07:25;99293;;;11.73;74.91
62632;BME280;48703;51.248;-0.546;2023-03-23T10:10:29;99299;;;11.69;74.25
62632;BME280;48703;51.248;-0.546;2023-03-23T10:13:41;99305;;;11.66;74.90
62632;BME280;48703;51.248;-0.546;2023-03-23T10:16:31;99304;;;11.63;74.80
62632;BME280;48703;51.248;-0.546;2023-03-23T10:19:33;99300;;;11.60;75.27
62632;BME280;48703;51.248;-0.546;2023-03-23T10:22:34;99317;;;11.55;75.70
62632;BME280;48703;51.248;-0.546;2023-03-23T10:25:37;99318;;;11.55;76.63
62632;BME280;48703;51.248;-0.546;2023-03-23T10:28:39;99308;;;11.59;77.64
62632;BME280;48703;51.248;-0.546;2023-03-23T10:31:41;99303;;;11.64;78.22
62632;BME280;48703;51.248;-0.546;2023-03-23T10:34:43;99297;;;11.70;79.04
62632;BME280;48703;51.248;-0.546;2023-03-23T10:37:46;99297;;;11.76;79.02
62632;BME280;48703;51.248;-0.546;2023-03-23T10:40:48;99297;;;11.90;79.08
62632;BME280;48703;51.248;-0.546;2023-03-23T10:43:48;99303;;;12.00;78.39
62632;BME280;48703;51.248;-0.546;2023-03-23T10:46:51;99310;;;12.04;78.63
62632;BME280;48703;51.248;-0.546;2023-03-23T10:49:53;99305;;;12.06;78.16
62632;BME280;48703;51.248;-0.546;2023-03-23T10:52:54;99307;;;12.08;78.50
62632;BME280;48703;51.248;-0.546;2023-03-23T10:55:56;99310;;;12.13;78.72
62632;BME280;48703;51.248;-0.546;2023-03-23T10:58:58;99310;;;12.20;78.43
62632;BME280;48703;51.248;-0.546;2023-03-23T11:02:02;99303;;;12.24;77.59
62632;BME280;48703;51.248;-0.546;2023-03-23T11:05:03;99316;;;12.25;78.10
62632;BME280;48703;51.248;-0.546;2023-03-23T11:08:09;99308;;;12.35;78.25
62632;BME280;48703;51.248;-0.546;2023-03-23T11:11:09;99314;;;12.39;77.73
62632;BME280;48703;51.248;-0.546;2023-03-23T11:14:16;99320;;;12.44;77.77
62632;BME280;48703;51.248;-0.546;2023-03-23T11:17:21;99324;;;12.51;77.02
62632;BME280;48703;51.248;-0.546;2023-03-23T11:20:12;99319;;;12.55;76.19
62632;BME280;48703;51.248;-0.546;2023-03-23T11:23:19;99321;;;12.58;76.59
62632;BME280;48703;51.248;-0.546;2023-03-23T11:26:17;99326;;;12.62;76.27
62632;BME280;48703;51.248;-0.546;2023-03-23T11:29:19;99333;;;12.63;76.53
62632;BME280;48703;51.248;-0.546;2023-03-23T11:32:22;99330;;;12.67;76.58
62632;BME280;48703;51.248;-0.546;2023-03-23T11:35:23;99325;;;12.68;76.43
62632;BME280;48703;51.248;-0.546;2023-03-23T11:38:24;99328;;;12.66;75.59
62632;BME280;48703;51.248;-0.546;2023-03-23T11:41:31;99334;;;12.64;76.22
62632;BME280;48703;51.248;-0.546;2023-03-23T11:44:31;99330;;;12.64;76.00
62632;BME280;48703;51.248;-0.546;2023-03-23T11:47:31;99318;;;12.73;76.49
62632;BME280;48703;51.248;-0.546;2023-03-23T11:50:32;99314;;;12.80;75.70
62632;BME280;48703;51.248;-0.546;2023-03-23T11:53:37;99304;;;12.81;76.02
62632;BME280;48703;51.248;-0.546;2023-03-23T11:56:37;99301;;;12.81;75.83
62632;BME280;48703;51.248;-0.546;2023-03-23T11:59:38;99296;;;12.86;75.36
62632;BME280;48703;51.248;-0.546;2023-03-23T12:02:42;99282;;;12.93;75.06
62632;BME280;48703;51.248;-0.546;2023-03-23T12:05:44;99274;;;12.95;74.25
62632;BME280;48703;51.248;-0.546;2023-03-23T12:08:49;99297;;;12.94;74.92
62632;BME280;48703;51.248;-0.546;2023-03-23T12:11:51;99291;;;13.01;75.25
62632;BME280;48703;51.248;-0.546;2023-03-23T12:14:50;99291;;;13.09;74.94
62632;BME280;48703;51.248;-0.546;2023-03-23T12:17:53;99292;;;13.15;74.78
62632;BME280;48703;51.248;-0.546;2023-03-23T12:20:56;99274;;;13.18;74.46
62632;BME280;48703;51.248;-0.546;2023-03-23T12:23:56;99285;;;13.25;73.17
62632;BME280;48703;51.248;-0.546;2023-03-23T12:26:57;99296;;;13.35;73.84
62632;BME280;48703;51.248;-0.546;2023-03-23T12:30:04;99276;;;13.35;71.05
62632;BME280;48703;51.248;-0.546;2023-03-23T12:33:07;99262;;;13.36;71.89
62632;BME280;48703;51.248;-0.546;2023-03-23T12:36:05;99261;;;13.34;71.42
62632;BME280;48703;51.248;-0.546;2023-03-23T12:39:11;99256;;;13.32;69.48
62632;BME280;48703;51.248;-0.546;2023-03-23T12:42:08;99240;;;13.32;69.59
62632;BME280;48703;51.248;-0.546;2023-03-23T12:45:13;99243;;;13.37;69.14
62632;BME280;48703;51.248;-0.546;2023-03-23T12:48:11;99256;;;13.38;68.85
62632;BME280;48703;51.248;-0.546;2023-03-23T12:51:14;99262;;;13.34;68.59
62632;BME280;48703;51.248;-0.546;2023-03-23T12:54:16;99254;;;13.32;69.60
62632;BME280;48703;51.248;-0.546;2023-03-23T12:57:18;99266;;;13.31;69.77
62632;BME280;48703;51.248;-0.546;2023-03-23T13:00:20;99265;;;13.30;70.61
62632;BME280;48703;51.248;-0.546;2023-03-23T13:03:22;99257;;;13.34;70.69
62632;BME280;48703;51.248;-0.546;2023-03-23T13:06:25;99253;;;13.39;71.52
62632;BME280;48703;51.248;-0.546;2023-03-23T13:09:35;99260;;;13.50;71.50
62632;BME280;48703;51.248;-0.546;2023-03-23T13:12:26;99258;;;13.55;70.68
62632;BME280;48703;51.248;-0.546;2023-03-23T13:15:31;99250;;;13.55;71.06
62632;BME280;48703;51.248;-0.546;2023-03-23T13:18:34;99238;;;13.55;71.14
62632;BME280;48703;51.248;-0.546;2023-03-23T13:21:34;99228;;;13.53;69.71
62632;BME280;48703;51.248;-0.546;2023-03-23T13:24:36;99234;;;13.51;69.53
62632;BME280;48703;51.248;-0.546;2023-03-23T13:27:36;99228;;;13.54;70.15
62632;BME280;48703;51.248;-0.546;2023-03-23T13:30:38;99228;;;13.59;70.04
62632;BME280;48703;51.248;-0.546;2023-03-23T13:33:45;99229;;;13.65;68.61
62632;BME280;48703;51.248;-0.546;2023-03-23T13:36:43;99226;;;13.67;68.22
62632;BME280;48703;51.248;-0.546;2023-03-23T13:39:48;99225;;;13.70;68.96
62632;BME280;48703;51.248;-0.546;2023-03-23T13:42:48;99219;;;13.72;68.81
62632;BME280;48703;51.248;-0.546;2023-03-23T13:45:51;99211;;;13.69;68.41
62632;BME280;48703;51.248;-0.546;2023-03-23T13:48:51;99218;;;13.74;68.89
62632;BME280;48703;51.248;-0.546;2023-03-23T13:51:58;99217;;;13.81;67.66
62632;BME280;48703;51.248;-0.546;2023-03-23T13:55:08;99217;;;13.84;68.58
62632;BME280;48703;51.248;-0.546;2023-03-23T13:57:57;99223;;;13.79;67.87
62632;BME280;48703;51.248;-0.546;2023-03-23T14:01:09;99219;;;13.70;68.60
62632;BME280;48703;51.248;-0.546;2023-03-23T14:04:01;99219;;;13.66;70.09
62632;BME280;48703;51.248;-0.546;2023-03-23T14:07:08;99221;;;13.59;69.97
62632;BME280;48703;51.248;-0.546;2023-03-23T14:10:05;99221;;;13.50;70.53
62632;BME280;48703;51.248;-0.546;2023-03-23T14:13:10;99218;;;13.41;71.19
62632;BME280;48703;51.248;-0.546;2023-03-23T14:16:14;99225;;;13.30;74.01
62632;BME280;48703;51.248;-0.546;2023-03-23T14:19:15;99222;;;13.16;75.51
62632;BME280;48703;51.248;-0.546;2023-03-23T14:22:17;99213;;;13.01;76.58
62632;BME280;48703;51.248;-0.546;2023-03-23T14:25:15;99213;;;12.89;77.70
62632;BME280;48703;51.248;-0.546;2023-03-23T14:28:17;99207;;;12.81;77.98
62632;BME280;48703;51.248;-0.546;2023-03-23T14:31:19;99204;;;12.77;78.74
62632;BME280;48703;51.248;-0.546;2023-03-23T14:34:21;99204;;;12.74;79.39
62632;BME280;48703;51.248;-0.546;2023-03-23T14:37:23;99203;;;12.72;79.50
62632;BME280;48703;51.248;-0.546;2023-03-23T14:40:26;99189;;;12.69;79.52
62632;BME280;48703;51.248;-0.546;2023-03-23T14:43:27;99193;;;12.68;79.46
62632;BME280;48703;51.248;-0.546;2023-03-23T14:46:29;99192;;;12.68;79.98
62632;BME280;48703;51.248;-0.546;2023-03-23T14:49:31;99189;;;12.64;80.22
62632;BME280;48703;51.248;-0.546;2023-03-23T14:52:33;99188;;;12.61;80.78
62632;BME280;48703;51.248;-0.546;2023-03-23T14:55:35;99182;;;12.55;80.92
62632;BME280;48703;51.248;-0.546;2023-03-23T14:58:37;99184;;;12.46;81.47
62632;BME280;48703;51.248;-0.546;2023-03-23T15:01:39;99184;;;12.39;82.08
62632;BME280;48703;51.248;-0.546;2023-03-23T15:04:41;99187;;;12.33;82.54
62632;BME280;48703;51.248;-0.546;2023-03-23T15:07:44;99183;;;12.27;83.04
62632;BME280;48703;51.248;-0.546;2023-03-23T15:10:50;99181;;;12.19;82.78
62632;BME280;48703;51.248;-0.546;2023-03-23T15:13:47;99176;;;12.14;83.37
62632;BME280;48703;51.248;-0.546;2023-03-23T15:16:49;99171;;;12.10;83.29
62632;BME280;48703;51.248;-0.546;2023-03-23T15:19:51;99168;;;12.05;83.47
62632;BME280;48703;51.248;-0.546;2023-03-23T15:22:53;99163;;;12.00;83.49
62632;BME280;48703;51.248;-0.546;2023-03-23T15:25:56;99154;;;11.98;83.63
62632;BME280;48703;51.248;-0.546;2023-03-23T15:29:01;99148;;;11.97;83.82
62632;BME280;48703;51.248;-0.546;2023-03-23T15:31:59;99143;;;11.95;83.34
62632;BME280;48703;51.248;-0.546;2023-03-23T15:35:03;99147;;;11.91;82.75
62632;BME280;48703;51.248;-0.546;2023-03-23T15:38:03;99143;;;11.84;82.80
62632;BME280;48703;51.248;-0.546;2023-03-23T15:41:06;99140;;;11.80;83.35
62632;BME280;48703;51.248;-0.546;2023-03-23T15:44:11;99138;;;11.74;83.65
62632;BME280;48703;51.248;-0.546;2023-03-23T15:47:12;99136;;;11.71;83.81
62632;BME280;48703;51.248;-0.546;2023-03-23T15:50:12;99134;;;11.65;84.46
62632;BME280;48703;51.248;-0.546;2023-03-23T15:53:18;99130;;;11.61;84.59
62632;BME280;48703;51.248;-0.546;2023-03-23T15:56:15;99122;;;11.56;85.29
62632;BME280;48703;51.248;-0.546;2023-03-23T15:59:17;99113;;;11.53;85.92
62632;BME280;48703;51.248;-0.546;2023-03-23T16:02:20;99113;;;11.47;86.20
62632;BME280;48703;51.248;-0.546;2023-03-23T16:05:21;99111;;;11.44;86.49
62632;BME280;48703;51.248;-0.546;2023-03-23T16:08:23;99103;;;11.42;86.91
62632;BME280;48703;51.248;-0.546;2023-03-23T16:11:26;99101;;;11.40;86.88
62632;BME280;48703;51.248;-0.546;2023-03-23T16:14:27;99092;;;11.36;87.50
62632;BME280;48703;51.248;-0.546;2023-03-23T16:17:29;99084;;;11.32;87.89
62632;BME280;48703;51.248;-0.546;2023-03-23T16:20:31;99071;;;11.30;88.19
62632;BME280;48703;51.248;-0.546;2023-03-23T16:23:33;99072;;;11.29;88.18
62632;BME280;48703;51.248;-0.546;2023-03-23T16:26:35;99073;;;11.27;88.09
62632;BME280;48703;51.248;-0.546;2023-03-23T16:29:37;99062;;;11.26;88.09
62632;BME280;48703;51.248;-0.546;2023-03-23T16:32:39;99057;;;11.24;88.49
62632;BME280;48703;51.248;-0.546;2023-03-23T16:35:41;99046;;;11.20;88.76